Time;durP1;ratioP1;P1;durP2;ratioP2;P2;SDS_P1;SDS_P2;PMS_P1;PMS_P2;Temp;Humidity;BMP_temperature;BMP_pressure;BME280_temperature;BME280_humidity;BME280_pressure;Samples;Min_cycle;Max_cycle;Signal;HPM_P1;HPM_P2
2023/09/02 00:01:37;;;;;;;5.63;3.72;;;;;;;18.83;100.00;96403.72;6215242;23;20011;-86
2023/09/02 00:04:03;;;;;;;5.15;2.55;;;;;;;18.48;100.00;96407.63;6190474;23;20004;-86
2023/09/02 00:06:29;;;;;;;6.47;2.72;;;;;;;18.36;100.00;96412.72;6191439;23;20000;-86
2023/09/02 00:08:55;;;;;;;5.35;2.67;;;;;;;18.35;100.00;96408.41;6216785;23;20026;-87
2023/09/02 00:11:20;;;;;;;4.63;2.40;;;;;;;18.31;100.00;96408.00;6191469;23;20008;-87
2023/09/02 00:13:46;;;;;;;8.35;2.13;;;;;;;18.30;100.00;96416.19;6243146;23;20306;-87
2023/09/02 00:16:13;;;;;;;9.55;2.63;;;;;;;18.13;100.00;96411.25;6242359;22;20039;-86
2023/09/02 00:18:39;;;;;;;6.60;2.40;;;;;;;18.12;100.00;96409.59;6240032;23;19992;-87
2023/09/02 00:21:05;;;;;;;5.60;2.30;;;;;;;17.98;100.00;96407.94;6233355;23;20042;-86
2023/09/02 00:23:45;;;;;;;6.93;2.40;;;;;;;17.95;100.00;96413.66;6190914;23;20004;-87
2023/09/02 00:26:11;;;;;;;5.90;2.38;;;;;;;17.98;100.00;96405.28;6192009;23;20016;-87
2023/09/02 00:28:38;;;;;;;5.22;2.50;;;;;;;18.16;100.00;96418.00;6190619;23;20011;-86
2023/09/02 00:31:03;;;;;;;4.65;2.15;;;;;;;17.83;100.00;96415.25;6190510;23;20004;-86
2023/09/02 00:33:29;;;;;;;5.63;2.25;;;;;;;18.09;100.00;96411.84;6190145;23;20712;-86
2023/09/02 00:35:55;;;;;;;6.70;2.38;;;;;;;17.98;100.00;96415.94;6190813;23;20004;-85
2023/09/02 00:38:20;;;;;;;5.07;2.15;;;;;;;17.87;100.00;96416.50;6191123;23;20165;-86
2023/09/02 00:41:02;;;;;;;5.45;2.15;;;;;;;17.90;100.00;96421.41;6189962;23;20045;-87
2023/09/02 00:43:29;;;;;;;6.25;2.35;;;;;;;17.71;100.00;96419.50;6191197;23;20011;-86
2023/09/02 00:45:55;;;;;;;5.40;2.15;;;;;;;17.67;100.00;96416.41;6191173;23;20012;-87
2023/09/02 00:48:21;;;;;;;6.95;2.22;;;;;;;17.69;100.00;96414.38;6242161;23;20012;-86
2023/09/02 00:50:47;;;;;;;5.15;2.38;;;;;;;17.65;100.00;96419.28;6215910;23;20008;-86
2023/09/02 00:53:12;;;;;;;6.45;2.30;;;;;;;17.63;100.00;96423.16;6191484;23;20197;-85
2023/09/02 00:55:48;;;;;;;5.10;2.42;;;;;;;17.65;100.00;96416.63;6191112;23;20000;-86
2023/09/02 00:58:14;;;;;;;5.32;1.95;;;;;;;17.78;100.00;96418.53;6215281;23;20432;-86
2023/09/02 01:00:40;;;;;;;5.97;2.05;;;;;;;17.89;100.00;96425.13;6190783;23;20038;-86
2023/09/02 01:03:05;;;;;;;5.80;1.95;;;;;;;17.86;100.00;96418.34;6216625;23;20328;-86
2023/09/02 01:05:33;;;;;;;8.93;2.50;;;;;;;17.68;100.00;96413.56;6192573;23;20008;-87
2023/09/02 01:07:59;;;;;;;5.70;1.98;;;;;;;17.86;100.00;96421.00;6194102;23;20011;-86
2023/09/02 01:10:26;;;;;;;7.10;2.38;;;;;;;17.87;100.00;96422.66;6217750;23;20012;-86
2023/09/02 01:12:52;;;;;;;4.15;1.95;;;;;;;17.93;100.00;96420.22;6193585;23;20004;-86
2023/09/02 01:15:17;;;;;;;5.35;1.98;;;;;;;17.83;100.00;96420.59;6193572;23;20021;-86
2023/09/02 01:17:43;;;;;;;7.15;2.38;;;;;;;17.82;100.00;96414.44;6194162;23;20566;-86
2023/09/02 01:20:13;;;;;;;5.55;2.33;;;;;;;17.70;100.00;96413.34;6246319;23;20529;-86
2023/09/02 01:22:53;;;;;;;5.00;2.22;;;;;;;17.64;100.00;96403.53;6194276;23;20126;-86
2023/09/02 01:25:44;;;;;;;4.85;1.98;;;;;;;17.74;100.00;96411.94;6196058;23;20011;-86
2023/09/02 01:28:22;;;;;;;5.10;2.10;;;;;;;17.93;100.00;96410.38;6218201;23;20019;-86
2023/09/02 01:30:52;;;;;;;3.95;2.05;;;;;;;18.08;100.00;96413.69;6218574;23;20011;-86
2023/09/02 01:33:19;;;;;;;5.93;1.90;;;;;;;18.07;100.00;96417.38;6217304;23;20004;-86
2023/09/02 01:35:45;;;;;;;4.45;1.85;;;;;;;17.99;100.00;96414.91;6218287;23;20436;-86
2023/09/02 01:38:14;;;;;;;5.05;2.08;;;;;;;17.96;100.00;96423.28;6193277;23;20058;-86
2023/09/02 01:40:41;;;;;;;7.15;2.00;;;;;;;17.90;100.00;96422.25;6192960;23;20012;-86
2023/09/02 01:43:08;;;;;;;5.03;1.98;;;;;;;18.02;100.00;96422.50;6194478;23;20023;-86
2023/09/02 01:45:35;;;;;;;5.43;2.05;;;;;;;18.02;100.00;96419.81;6219405;23;20016;-87
2023/09/02 01:48:01;;;;;;;5.15;1.98;;;;;;;18.17;100.00;96421.47;6197462;23;20011;-86
2023/09/02 01:50:32;;;;;;;5.55;1.98;;;;;;;18.05;100.00;96413.28;6195524;23;20094;-86
2023/09/02 01:52:59;;;;;;;4.78;1.73;;;;;;;18.01;100.00;96420.03;6193677;23;20008;-86
2023/09/02 01:55:25;;;;;;;3.88;1.85;;;;;;;17.99;100.00;96419.41;6193289;23;20007;-87
2023/09/02 01:57:54;;;;;;;4.13;2.00;;;;;;;18.01;100.00;96422.69;6218211;23;20004;-86
2023/09/02 02:00:20;;;;;;;5.93;2.60;;;;;;;17.84;100.00;96420.41;6192426;23;20078;-86
2023/09/02 02:02:49;;;;;;;6.93;2.42;;;;;;;17.84;100.00;96423.06;6219884;23;20004;-86
2023/09/02 02:05:17;;;;;;;4.03;1.92;;;;;;;18.07;100.00;96427.19;6194912;23;20008;-86
2023/09/02 02:07:49;;;;;;;8.60;2.17;;;;;;;18.06;100.00;96425.56;6195360;23;20004;-87
2023/09/02 02:10:16;;;;;;;4.63;2.15;;;;;;;18.02;100.00;96421.66;6194208;23;20031;-86
2023/09/02 02:12:43;;;;;;;6.40;2.00;;;;;;;18.01;100.00;96418.19;6194119;23;20115;-86
2023/09/02 02:15:11;;;;;;;8.73;2.47;;;;;;;18.06;100.00;96414.91;6194781;23;20000;-87
2023/09/02 02:17:41;;;;;;;7.32;3.13;;;;;;;18.36;100.00;96418.03;6194383;23;20087;-86
2023/09/02 02:20:11;;;;;;;8.48;3.30;;;;;;;18.38;100.00;96414.16;6218669;23;20000;-86
2023/09/02 02:22:37;;;;;;;7.78;4.32;;;;;;;18.27;100.00;96411.25;6193835;23;20000;-87
2023/09/02 02:25:03;;;;;;;10.00;4.15;;;;;;;18.29;100.00;96409.22;6247345;23;20031;-87
2023/09/02 02:27:29;;;;;;;8.23;2.35;;;;;;;18.16;100.00;96411.88;6196392;23;20008;-86
2023/09/02 02:29:56;;;;;;;6.80;3.88;;;;;;;17.96;100.00;96411.81;6221610;23;20472;-86
2023/09/02 02:32:21;;;;;;;9.98;2.80;;;;;;;17.73;100.00;96420.13;6220860;23;20240;-87
2023/09/02 02:34:47;;;;;;;6.38;2.45;;;;;;;17.71;100.00;96424.84;6191292;23;20345;-86
2023/09/02 02:37:13;;;;;;;6.22;1.90;;;;;;;17.90;100.00;96421.41;6221691;23;20070;-86
2023/09/02 02:39:38;;;;;;;9.70;2.40;;;;;;;17.65;100.00;96426.44;6196781;23;20004;-87
2023/09/02 02:42:04;;;;;;;6.82;4.22;;;;;;;17.36;100.00;96428.34;6196014;23;20014;-87
2023/09/02 02:44:29;;;;;;;13.35;7.95;;;;;;;17.36;100.00;96430.19;6221506;23;20045;-86
2023/09/02 02:46:55;;;;;;;10.30;4.82;;;;;;;17.49;100.00;96435.56;6196581;23;20008;-86
2023/09/02 02:49:21;;;;;;;9.05;3.63;;;;;;;17.53;100.00;96431.50;6196534;23;20015;-86
2023/09/02 02:51:46;;;;;;;5.97;2.63;;;;;;;17.54;100.00;96430.50;6196546;23;20000;-86
2023/09/02 02:54:12;;;;;;;7.85;3.00;;;;;;;17.51;100.00;96428.22;6221616;23;20000;-87
2023/09/02 02:56:38;;;;;;;8.07;3.08;;;;;;;17.36;100.00;96424.88;6196660;23;20008;-86
2023/09/02 02:59:04;;;;;;;6.30;2.30;;;;;;;17.58;100.00;96425.59;6194654;23;20032;-86
2023/09/02 03:01:31;;;;;;;4.03;2.05;;;;;;;17.58;100.00;96431.72;6195118;23;20057;-87
2023/09/02 03:03:58;;;;;;;5.97;2.00;;;;;;;17.54;100.00;96425.19;6194690;23;20000;-86
2023/09/02 03:06:24;;;;;;;6.22;2.28;;;;;;;17.51;100.00;96430.88;6220703;23;20091;-85
2023/09/02 03:08:49;;;;;;;6.57;1.92;;;;;;;17.05;100.00;96439.41;6193928;23;20008;-85
2023/09/02 03:11:15;;;;;;;5.65;2.70;;;;;;;17.21;100.00;96438.28;6192881;23;20004;-86
2023/09/02 03:13:41;;;;;;;5.32;2.25;;;;;;;17.26;100.00;96437.69;6219053;23;20424;-86
2023/09/02 03:16:15;;;;;;;6.18;2.67;;;;;;;17.13;100.00;96441.09;6220082;23;20008;-86
2023/09/02 03:18:41;;;;;;;5.78;2.08;;;;;;;17.13;100.00;96441.91;6195076;23;20000;-86
2023/09/02 03:21:07;;;;;;;5.72;2.35;;;;;;;17.17;100.00;96432.56;6193278;23;20427;-86
2023/09/02 03:23:35;;;;;;;5.35;2.20;;;;;;;17.16;100.00;96438.03;6192806;23;20083;-86
2023/09/02 03:26:09;;;;;;;10.73;2.30;;;;;;;17.09;100.00;96439.84;6219800;23;20027;-86
2023/09/02 03:28:35;;;;;;;5.75;2.05;;;;;;;16.90;100.00;96438.69;6195098;23;20008;-86
2023/09/02 03:31:08;;;;;;;6.05;2.30;;;;;;;16.99;100.00;96448.16;6193094;23;20476;-84
2023/09/02 03:33:36;;;;;;;4.28;2.08;;;;;;;17.30;100.00;96439.75;6194544;23;20042;-84
2023/09/02 03:36:03;;;;;;;5.03;2.28;;;;;;;17.26;100.00;96451.81;6193107;23;20008;-85
2023/09/02 03:38:29;;;;;;;4.85;2.17;;;;;;;17.27;100.00;96448.16;6195203;23;20000;-85
2023/09/02 03:40:56;;;;;;;7.53;2.33;;;;;;;17.26;100.00;96443.00;6237819;22;20000;-85
2023/09/02 03:43:21;;;;;;;6.47;2.20;;;;;;;17.12;100.00;96447.44;6267718;22;20004;-84
2023/09/02 03:45:49;;;;;;;7.85;1.98;;;;;;;16.98;100.00;96443.88;6216817;22;19996;-85
2023/09/02 03:48:19;;;;;;;6.43;2.30;;;;;;;16.90;100.00;96447.50;6222527;23;20065;-85
2023/09/02 03:51:16;;;;;;;5.30;1.80;;;;;;;17.01;100.00;96438.16;6203819;23;20015;-85
2023/09/02 03:53:44;;;;;;;7.90;2.00;;;;;;;17.10;100.00;96437.00;6218298;23;20000;-85
2023/09/02 03:56:12;;;;;;;8.20;2.40;;;;;;;17.00;100.00;96443.66;6194521;23;20004;-85
2023/09/02 03:58:38;;;;;;;5.05;2.03;;;;;;;17.28;100.00;96441.00;6218353;23;20015;-84
2023/09/02 04:01:03;;;;;;;5.55;2.20;;;;;;;17.24;100.00;96445.06;6192722;23;20007;-85
2023/09/02 04:03:32;;;;;;;6.63;2.27;;;;;;;17.14;100.00;96445.41;6192474;23;20000;-85
2023/09/02 04:05:57;;;;;;;6.03;2.30;;;;;;;17.30;100.00;96441.59;6192874;23;20704;-85
2023/09/02 04:08:27;;;;;;;5.28;2.00;;;;;;;17.03;100.00;96445.94;6192910;23;20004;-84
2023/09/02 04:10:55;;;;;;;3.33;1.88;;;;;;;17.04;100.00;96444.94;6192201;23;20011;-84
2023/09/02 04:13:24;;;;;;;5.55;2.10;;;;;;;17.13;100.00;96449.06;6192366;23;20004;-85
2023/09/02 04:16:02;;;;;;;5.20;2.00;;;;;;;17.16;100.00;96457.47;6217487;23;20004;-85
2023/09/02 04:18:30;;;;;;;3.60;2.03;;;;;;;16.95;100.00;96461.00;6192299;23;20035;-85
2023/09/02 04:20:59;;;;;;;4.72;2.15;;;;;;;16.95;100.00;96466.31;6191995;23;20014;-85
2023/09/02 04:23:25;;;;;;;4.50;2.30;;;;;;;16.86;100.00;96470.13;6217010;23;20004;-85
2023/09/02 04:25:53;;;;;;;5.95;1.90;;;;;;;17.01;100.00;96467.41;6191650;23;20008;-85
2023/09/02 04:28:20;;;;;;;7.88;2.30;;;;;;;16.95;100.00;96470.81;6193489;23;20000;-85
2023/09/02 04:30:47;;;;;;;4.75;1.85;;;;;;;16.92;100.00;96471.19;6191361;23;20004;-85
2023/09/02 04:33:14;;;;;;;3.80;1.90;;;;;;;16.81;100.00;96469.09;6193330;23;20008;-85
2023/09/02 04:35:42;;;;;;;4.55;2.08;;;;;;;16.64;100.00;96473.81;6194174;23;20081;-85
2023/09/02 04:38:08;;;;;;;6.00;1.88;;;;;;;16.94;100.00;96470.00;6194223;23;20742;-85
2023/09/02 04:40:40;;;;;;;7.07;2.67;;;;;;;16.86;100.00;96474.63;6193178;23;20027;-85
2023/09/02 04:43:07;;;;;;;3.92;1.80;;;;;;;16.90;100.00;96473.22;6194220;23;20011;-85
2023/09/02 04:45:36;;;;;;;3.20;1.67;;;;;;;16.48;100.00;96469.59;6219434;23;20001;-85
2023/09/02 04:48:11;;;;;;;3.93;2.03;;;;;;;16.70;100.00;96473.88;6194911;23;20000;-85
2023/09/02 04:50:38;;;;;;;6.60;2.35;;;;;;;16.80;100.00;96473.59;6193817;23;20047;-85
2023/09/02 04:53:07;;;;;;;7.23;2.20;;;;;;;16.71;100.00;96478.16;6219298;23;20016;-85
2023/09/02 04:55:41;;;;;;;9.67;2.47;;;;;;;16.76;100.00;96482.09;6193420;23;20008;-84
2023/09/02 04:58:09;;;;;;;3.33;1.97;;;;;;;16.76;100.00;96487.41;6194883;23;20004;-85
2023/09/02 05:00:37;;;;;;;8.95;2.58;;;;;;;16.61;100.00;96492.78;6193529;23;20004;-84
2023/09/02 05:03:04;;;;;;;4.97;2.90;;;;;;;16.94;100.00;96485.94;6218700;23;20015;-84
2023/09/02 05:05:32;;;;;;;5.37;2.33;;;;;;;17.02;100.00;96492.13;6193626;23;20008;-85
2023/09/02 05:07:58;;;;;;;6.47;2.13;;;;;;;17.04;100.00;96493.59;6194149;23;20026;-84
2023/09/02 05:10:24;;;;;;;7.57;2.97;;;;;;;17.14;100.00;96501.22;6217257;23;20008;-85
2023/09/02 05:12:51;;;;;;;6.90;2.73;;;;;;;17.25;100.00;96497.19;6194191;23;20007;-85
2023/09/02 05:15:17;;;;;;;7.28;2.53;;;;;;;17.03;100.00;96499.06;6194298;23;20035;-84
2023/09/02 05:17:44;;;;;;;7.17;2.43;;;;;;;17.06;100.00;96499.50;6194021;23;20024;-85
2023/09/02 05:20:10;;;;;;;4.65;1.65;;;;;;;17.27;100.00;96497.81;6194245;23;20008;-85
2023/09/02 05:22:36;;;;;;;4.40;2.25;;;;;;;17.36;100.00;96493.97;6219972;23;20000;-85
2023/09/02 05:25:03;;;;;;;5.27;2.30;;;;;;;17.73;100.00;96494.59;6218210;23;20058;-85
2023/09/02 05:27:29;;;;;;;5.10;2.20;;;;;;;17.90;100.00;96496.75;6193516;23;20020;-84
2023/09/02 05:29:55;;;;;;;4.07;2.40;;;;;;;18.56;100.00;96489.97;6219115;23;20008;-85
2023/09/02 05:32:20;;;;;;;5.28;2.25;;;;;;;18.69;100.00;96487.31;6246670;23;20459;-84
2023/09/02 05:34:46;;;;;;;3.72;2.03;;;;;;;18.64;100.00;96492.41;6193852;23;20004;-85
2023/09/02 05:37:12;;;;;;;5.68;2.33;;;;;;;18.73;100.00;96495.75;6194057;23;20008;-85
2023/09/02 05:39:38;;;;;;;8.27;2.05;;;;;;;18.90;100.00;96491.66;6194524;23;20091;-84
2023/09/02 05:42:04;;;;;;;3.35;1.88;;;;;;;19.05;100.00;96496.78;6219672;23;20054;-85
2023/09/02 05:44:34;;;;;;;4.25;1.90;;;;;;;18.56;100.00;96504.09;6218743;23;20635;-84
2023/09/02 05:46:59;;;;;;;6.78;1.63;;;;;;;19.25;100.00;96504.78;6247602;23;20079;-85
2023/09/02 05:49:25;;;;;;;5.03;1.80;;;;;;;19.77;100.00;96503.03;6220129;23;20008;-85
2023/09/02 05:51:51;;;;;;;5.57;1.92;;;;;;;19.97;100.00;96503.78;6218854;23;20000;-85
2023/09/02 05:54:16;;;;;;;5.00;1.77;;;;;;;20.28;100.00;96502.19;6194791;23;20008;-84
2023/09/02 05:56:42;;;;;;;3.92;1.73;;;;;;;21.02;100.00;96494.50;6245895;23;20000;-85
2023/09/02 05:59:07;;;;;;;4.35;1.92;;;;;;;21.28;100.00;96493.47;6194685;23;20034;-84
2023/09/02 06:01:33;;;;;;;4.65;1.73;;;;;;;21.63;100.00;96489.25;6194800;23;20008;-85
2023/09/02 06:03:58;;;;;;;3.88;1.58;;;;;;;21.67;100.00;96478.91;6218671;23;19996;-85
2023/09/02 06:06:24;;;;;;;4.57;1.60;;;;;;;21.59;100.00;96484.53;6194548;23;20368;-85
2023/09/02 06:08:49;;;;;;;5.30;1.65;;;;;;;21.60;100.00;96492.34;6246673;23;20363;-85
2023/09/02 06:11:15;;;;;;;4.95;1.95;;;;;;;21.82;100.00;96495.38;6192141;23;20008;-85
2023/09/02 06:13:41;;;;;;;3.80;1.65;;;;;;;21.93;100.00;96493.00;6191348;23;20008;-85
2023/09/02 06:16:07;;;;;;;3.60;1.63;;;;;;;22.29;100.00;96490.28;6216959;23;20479;-85
2023/09/02 06:18:34;;;;;;;4.32;1.90;;;;;;;22.14;100.00;96495.22;6190830;23;20385;-85
2023/09/02 06:21:07;;;;;;;9.35;1.80;;;;;;;22.09;100.00;96493.19;6216307;23;20042;-86
2023/09/02 06:23:32;;;;;;;;;;;;;;;22.60;100.00;96480.38;6220515;23;20054;-85
2023/09/02 06:26:01;;;;;;;3.63;1.80;;;;;;;22.60;100.00;96491.09;6194827;23;19904;-85
2023/09/02 06:28:27;;;;;;;5.10;1.92;;;;;;;23.44;100.00;96497.19;6193745;23;20000;-85
2023/09/02 06:30:54;;;;;;;4.50;2.10;;;;;;;23.25;100.00;96488.44;6192155;23;20054;-86
2023/09/02 06:33:21;;;;;;;5.30;1.80;;;;;;;23.70;100.00;96489.72;6218499;23;20004;-85
2023/09/02 06:35:51;;;;;;;3.35;1.30;;;;;;;23.31;100.00;96492.06;6193811;23;20023;-85
2023/09/02 06:38:17;;;;;;;7.32;1.63;;;;;;;23.79;100.00;96487.50;6219669;23;20008;-84
2023/09/02 06:40:43;;;;;;;4.70;1.70;;;;;;;24.10;100.00;96489.75;6218602;23;20008;-85
2023/09/02 06:43:09;;;;;;;5.05;1.80;;;;;;;23.88;100.00;96497.63;6218741;23;20003;-85
2023/09/02 06:45:35;;;;;;;6.25;1.90;;;;;;;23.57;100.00;96496.13;6192749;23;20016;-84
2023/09/02 06:48:01;;;;;;;5.10;1.40;;;;;;;23.94;100.00;96490.47;6192578;23;20054;-84
2023/09/02 06:50:31;;;;;;;4.00;1.52;;;;;;;24.06;100.00;96485.09;6192494;23;20004;-84
2023/09/02 06:52:57;;;;;;;3.15;1.65;;;;;;;24.59;100.00;96495.53;6193247;23;20428;-85
2023/09/02 06:55:24;;;;;;;3.08;1.50;;;;;;;25.09;100.00;96492.09;6216641;23;20000;-85
2023/09/02 06:57:50;;;;;;;3.85;1.80;;;;;;;24.99;100.00;96497.31;6218523;23;20012;-85
2023/09/02 07:00:15;;;;;;;3.40;1.77;;;;;;;25.36;100.00;96499.53;6217578;23;20390;-84
2023/09/02 07:02:49;;;;;;;5.90;2.40;;;;;;;25.44;100.00;96504.47;6192003;23;20004;-85
2023/09/02 07:05:19;;;;;;;6.25;3.10;;;;;;;26.44;100.00;96497.16;6193073;23;20051;-84
2023/09/02 07:07:44;;;;;;;9.52;3.30;;;;;;;26.65;100.00;96497.38;6193243;23;20018;-85
2023/09/02 07:10:17;;;;;;;6.45;2.38;;;;;;;26.60;100.00;96500.06;6192492;23;20004;-84
2023/09/02 07:12:50;;;;;;;;;;;;;;;27.21;100.00;96503.31;6219503;23;20007;-85
2023/09/02 07:15:15;;;;;;;3.00;1.42;;;;;;;27.98;100.00;96498.41;6217380;23;20582;-85
2023/09/02 07:17:42;;;;;;;3.10;1.85;;;;;;;27.62;100.00;96500.88;6216711;23;20004;-85
2023/09/02 07:20:08;;;;;;;4.72;1.70;;;;;;;27.29;100.00;96507.41;6192588;23;20010;-85
2023/09/02 07:22:36;;;;;;;7.03;1.77;;;;;;;27.48;100.00;96512.13;6191370;23;20011;-85
2023/09/02 07:25:06;;;;;;;4.70;1.55;;;;;;;27.98;100.00;96506.50;6217807;23;20490;-85
2023/09/02 07:27:32;;;;;;;5.28;1.40;;;;;;;27.60;100.00;96508.41;6217903;23;19999;-85
2023/09/02 07:29:59;;;;;;;3.33;1.27;;;;;;;28.08;100.00;96509.25;6192627;23;20100;-85
2023/09/02 07:32:24;;;;;;;3.70;1.42;;;;;;;28.59;100.00;96510.25;6216669;23;20062;-85
2023/09/02 07:34:51;;;;;;;2.72;1.50;;;;;;;28.34;100.00;96519.09;6192449;23;20001;-85
2023/09/02 07:37:21;;;;;;;4.75;1.83;;;;;;;28.20;100.00;96515.25;6193954;23;20437;-85
2023/09/02 07:39:46;;;;;;;6.53;1.58;;;;;;;28.47;100.00;96523.22;6194078;23;20487;-84
2023/09/02 07:42:12;;;;;;;4.43;1.55;;;;;;;29.21;100.00;96516.59;6193221;23;20012;-85
2023/09/02 07:44:38;;;;;;;4.95;1.27;;;;;;;29.28;100.00;96519.03;6193425;23;20000;-85
2023/09/02 07:47:03;;;;;;;6.45;3.15;;;;;;;29.57;100.00;96527.38;6195480;23;20012;-85
2023/09/02 07:49:29;;;;;;;5.72;1.38;;;;;;;29.62;100.00;96521.19;6192468;23;20078;-85
2023/09/02 07:51:58;;;;;;;4.85;1.80;;;;;;;30.17;97.48;96525.63;6218711;23;20012;-85
2023/09/02 07:54:24;;;;;;;5.68;1.52;;;;;;;31.12;92.62;96530.03;6193824;23;20004;-85
2023/09/02 07:56:50;;;;;;;5.20;1.70;;;;;;;31.05;97.97;96532.25;6218838;23;20004;-85
2023/09/02 07:59:16;;;;;;;5.05;1.90;;;;;;;30.65;100.00;96534.13;6245470;23;20004;-85
2023/09/02 08:01:42;;;;;;;4.15;1.23;;;;;;;31.15;100.00;96534.06;6218996;23;20012;-85
2023/09/02 08:04:07;;;;;;;3.72;1.67;;;;;;;31.26;97.99;96532.91;6194370;23;20333;-85
2023/09/02 08:06:33;;;;;;;3.55;1.48;;;;;;;32.26;87.78;96533.31;6195668;23;20004;-84
2023/09/02 08:08:59;;;;;;;2.58;1.52;;;;;;;31.61;84.11;96531.81;6194472;23;20011;-85
2023/09/02 08:11:26;;;;;;;4.22;1.40;;;;;;;31.67;82.86;96535.28;6196846;23;20634;-85
2023/09/02 08:13:52;;;;;;;4.43;1.73;;;;;;;32.05;78.65;96533.53;6220141;23;20004;-84
2023/09/02 08:16:17;;;;;;;3.22;1.70;;;;;;;31.31;77.48;96529.34;6199761;23;20000;-85
2023/09/02 08:18:43;;;;;;;3.58;1.38;;;;;;;31.59;76.09;96536.75;6222208;23;20011;-85
2023/09/02 08:21:10;;;;;;;3.50;1.48;;;;;;;31.60;79.40;96541.06;6192420;23;20065;-85
2023/09/02 08:23:38;;;;;;;2.70;1.48;;;;;;;32.49;82.21;96542.56;6243076;23;20024;-84
2023/09/02 08:26:16;;;;;;;4.75;1.85;;;;;;;32.94;79.45;96546.59;6192700;23;20087;-85
2023/09/02 08:28:42;;;;;;;5.78;1.40;;;;;;;33.03;76.91;96553.03;6218011;23;20038;-85
2023/09/02 08:31:11;;;;;;;2.80;1.40;;;;;;;32.52;77.29;96550.97;6218064;23;20418;-84
2023/09/02 08:33:37;;;;;;;6.18;1.77;;;;;;;32.06;81.99;96548.78;6217486;23;20000;-85
2023/09/02 08:36:04;;;;;;;3.95;1.60;;;;;;;32.61;77.80;96551.13;6192806;23;20012;-84
2023/09/02 08:38:29;;;;;;;4.47;1.70;;;;;;;31.86;80.22;96540.81;6193972;23;20019;-84
2023/09/02 08:40:58;;;;;;;2.75;1.55;;;;;;;33.00;71.70;96544.59;6192181;23;20012;-84
2023/09/02 08:43:26;;;;;;;3.20;1.70;;;;;;;32.72;74.53;96549.06;6193237;23;20065;-84
2023/09/02 08:45:55;;;;;;;3.42;1.77;;;;;;;32.08;86.27;96543.84;6246726;23;20000;-84
2023/09/02 08:48:24;;;;;;;3.90;1.77;;;;;;;32.36;74.31;96549.50;6192947;23;20015;-84
2023/09/02 08:50:54;;;;;;;2.80;1.67;;;;;;;32.81;79.71;96548.13;6217037;23;20004;-84
2023/09/02 08:53:21;;;;;;;3.97;1.33;;;;;;;33.28;76.88;96551.00;6217533;23;20007;-84
2023/09/02 08:55:52;;;;;;;3.95;1.52;;;;;;;33.14;71.64;96556.41;6191671;23;20008;-85
2023/09/02 08:58:17;;;;;;;3.00;1.42;;;;;;;33.46;70.58;96555.59;6193414;23;20008;-87
2023/09/02 09:00:46;;;;;;;10.48;8.43;;;;;;;33.06;77.51;96555.13;6191935;23;20014;-87
2023/09/02 09:03:16;;;;;;;2.58;1.70;;;;;;;32.33;74.46;96555.56;6194040;23;20010;-87
2023/09/02 09:05:43;;;;;;;3.78;1.90;;;;;;;32.75;70.50;96552.03;6193180;23;20815;-87
2023/09/02 09:08:10;;;;;;;2.15;1.40;;;;;;;32.02;72.69;96561.31;6193421;23;20012;-85
2023/09/02 09:10:36;;;;;;;3.22;1.75;;;;;;;32.13;78.45;96556.59;6192643;23;20008;-87
2023/09/02 09:13:07;;;;;;;3.35;1.83;;;;;;;32.61;77.66;96562.84;6193726;23;20011;-86
2023/09/02 09:15:35;;;;;;;2.85;1.55;;;;;;;32.93;72.14;96558.59;6193031;23;20015;-84
2023/09/02 09:18:03;;;;;;;3.95;2.13;;;;;;;32.87;72.42;96565.22;6218812;23;20008;-84
2023/09/02 09:20:30;;;;;;;6.45;2.30;;;;;;;33.00;76.08;96569.13;6194617;23;20012;-84
2023/09/02 09:22:55;;;;;;;3.50;1.65;;;;;;;32.59;79.72;96565.03;6195075;23;20067;-84
2023/09/02 09:25:21;;;;;;;3.90;1.60;;;;;;;32.70;77.26;96576.63;6194666;23;20043;-86
2023/09/02 09:27:48;;;;;;;2.78;1.88;;;;;;;32.20;85.43;96564.44;6247301;23;20007;-86
2023/09/02 09:30:32;;;;;;;3.25;1.90;;;;;;;33.39;79.39;96581.63;6220646;23;20004;-85
2023/09/02 09:33:05;;;;;;;4.82;2.30;;;;;;;33.40;71.03;96580.50;6194465;23;20000;-86
2023/09/02 09:35:32;;;;;;;3.92;1.70;;;;;;;34.10;65.44;96583.16;6198065;23;20074;-86
2023/09/02 09:37:58;;;;;;;3.33;1.83;;;;;;;33.83;70.05;96586.63;6221761;23;20008;-86
2023/09/02 09:40:35;;;;;;;3.75;1.50;;;;;;;33.92;68.68;96578.56;6198998;23;20023;-85
2023/09/02 09:43:12;;;;;;;3.33;2.05;;;;;;;34.26;67.94;96579.03;6223964;23;20059;-87
2023/09/02 09:45:56;;;;;;;2.90;1.52;;;;;;;34.43;67.24;96574.88;6229921;23;20409;-86
2023/09/02 09:48:22;;;;;;;3.67;1.77;;;;;;;34.40;64.56;96586.41;6196897;23;20008;-85
2023/09/02 09:50:55;;;;;;;4.10;1.45;;;;;;;34.25;64.98;96579.34;6220336;23;20455;-86
2023/09/02 09:53:32;;;;;;;3.28;1.35;;;;;;;33.33;65.94;96589.06;6221653;23;20079;-85
2023/09/02 09:56:04;;;;;;;3.58;1.88;;;;;;;34.10;62.35;96590.53;6195601;23;20114;-86
2023/09/02 09:58:40;;;;;;;4.57;2.20;;;;;;;33.52;65.33;96595.34;6222267;23;20057;-85
2023/09/02 10:01:08;;;;;;;2.95;1.52;;;;;;;33.38;55.95;96591.72;6197183;23;20012;-85
2023/09/02 10:03:34;;;;;;;3.38;1.42;;;;;;;34.17;60.88;96585.50;6195767;23;20079;-86
2023/09/02 10:06:04;;;;;;;7.93;3.08;;;;;;;33.98;59.92;96583.63;6220521;23;20053;-86
2023/09/02 10:08:49;;;;;;;1.77;1.20;;;;;;;33.61;56.76;96594.69;6196175;23;20008;-86
2023/09/02 10:11:21;;;;;;;2.40;1.10;;;;;;;33.50;58.28;96585.81;6196994;23;20015;-86
2023/09/02 10:13:52;;;;;;;1.80;1.15;;;;;;;33.72;53.42;96593.38;6195136;23;20074;-85
2023/09/02 10:16:18;;;;;;;4.28;1.42;;;;;;;33.48;54.66;96596.22;6220153;23;20004;-85
2023/09/02 10:18:48;;;;;;;3.75;1.60;;;;;;;33.59;55.77;96594.16;6218677;23;20348;-85
2023/09/02 10:21:15;;;;;;;2.55;1.35;;;;;;;32.99;59.03;96590.13;6218580;23;20011;-83
2023/09/02 10:23:49;;;;;;;2.63;1.20;;;;;;;33.35;56.90;96592.31;6218551;23;20000;-85
2023/09/02 10:26:23;;;;;;;2.97;1.40;;;;;;;33.44;49.95;96596.00;6218558;23;20012;-85
2023/09/02 10:28:50;;;;;;;2.42;1.45;;;;;;;33.61;55.24;96597.41;6193474;23;20009;-85
2023/09/02 10:31:25;;;;;;;2.42;1.20;;;;;;;33.12;54.79;96593.22;6218925;23;20010;-85
2023/09/02 10:34:06;;;;;;;3.17;1.55;;;;;;;33.69;53.90;96604.88;6218411;23;20008;-85
2023/09/02 10:36:33;;;;;;;2.28;1.30;;;;;;;34.16;51.35;96592.06;6219618;23;20424;-85
2023/09/02 10:39:03;;;;;;;4.63;1.60;;;;;;;33.59;53.57;96599.59;6194212;23;20142;-85
2023/09/02 10:41:30;;;;;;;4.30;1.70;;;;;;;33.48;53.13;96593.47;6245176;23;20252;-86
2023/09/02 10:43:56;;;;;;;3.10;1.60;;;;;;;33.91;52.89;96588.69;6217878;23;20007;-85
2023/09/02 10:46:33;;;;;;;2.47;1.33;;;;;;;34.09;49.86;96588.94;6193177;23;20475;-85
2023/09/02 10:48:59;;;;;;;3.58;1.65;;;;;;;33.56;50.52;96592.81;6243655;23;20035;-85
2023/09/02 10:51:25;;;;;;;2.90;1.40;;;;;;;32.85;51.23;96591.94;6192254;23;20027;-85
2023/09/02 10:53:51;;;;;;;3.10;1.55;;;;;;;33.50;49.49;96581.22;6193601;23;20000;-86
2023/09/02 10:56:36;;;;;;;3.85;1.80;;;;;;;33.15;50.56;96584.47;6218489;23;20011;-85
2023/09/02 10:59:03;;;;;;;2.42;1.50;;;;;;;33.88;52.87;96588.47;6192380;23;20004;-85
2023/09/02 11:01:46;;;;;;;4.65;1.80;;;;;;;34.28;48.48;96581.47;6192541;23;20108;-85
2023/09/02 11:04:12;;;;;;;4.47;1.27;;;;;;;33.77;49.74;96585.94;6192991;23;20416;-86
2023/09/02 11:07:16;;;;;;;5.13;1.75;;;;;;;34.41;51.72;96594.31;6193472;23;20000;-85
2023/09/02 11:09:55;;;;;;;5.18;1.70;;;;;;;34.54;48.05;96581.78;6218564;23;20424;-86
2023/09/02 11:12:21;;;;;;;3.17;1.70;;;;;;;34.94;45.67;96587.47;6244151;23;20027;-86
2023/09/02 11:15:06;;;;;;;2.20;1.10;;;;;;;34.13;45.13;96581.75;6192820;23;20428;-85
2023/09/02 11:17:33;;;;;;;2.40;1.33;;;;;;;34.41;44.00;96580.66;6172321;23;20011;-85
2023/09/02 11:20:03;;;;;;;2.65;1.30;;;;;;;34.44;45.92;96577.31;6193661;23;20000;-86
2023/09/02 11:22:56;;;;;;;2.17;1.20;;;;;;;34.97;43.89;96576.72;6192085;23;20015;-86
2023/09/02 11:25:33;;;;;;;2.38;1.40;;;;;;;34.73;44.79;96573.47;6194310;23;20004;-87
2023/09/02 11:28:04;;;;;;;2.10;1.33;;;;;;;34.60;42.76;96571.56;6193692;23;21184;-87
2023/09/02 11:30:30;;;;;;;1.70;1.10;;;;;;;34.39;41.36;96566.50;6217985;23;20392;-87
2023/09/02 11:32:57;;;;;;;4.10;1.27;;;;;;;35.21;42.28;96567.47;6194625;23;20011;-86
2023/09/02 11:35:28;;;;;;;3.17;1.50;;;;;;;35.38;42.26;96570.34;6193501;23;20299;-87